セントジョージズ の空港の天気 - METARとTAF

ポイント・サリンス国際空港 ( TGPY / GND ) - グレナダ セントジョージズ
飛行場実況気象(Metar)
観測時間11/30 16:00 AST (11/30 20:00 UTC)
風向・風速東 9m/s
視程10km以上
天気現象
少しの雲 雲底高度 520m
気温28℃
湿度84%
気圧1010hPa
METARTGPY 302000Z 09018KT 9999 FEW017 28/25 Q1010 NOSIG
過去の天気等 Google飛行場航空写真 Wunderground天気予報

過去48時間のMETAR

飛行場予報(TAF)
発表時間: 11/30 12:00 AST (11/30 16:00 UTC)
予報対象時間: 30日14時 AST ~ 1日14時 AST
風向・風速東 7m/s
視程10km以上
全天の4割程度の雲 雲底高度 550m
TGPY 301600Z 3018/0118 09014KT 9999 SCT018